Time;durP1;ratioP1;P1;durP2;ratioP2;P2;SDS_P1;SDS_P2;PMS_P1;PMS_P2;Temp;Humidity;BMP_temperature;BMP_pressure;BME280_temperature;BME280_humidity;BME280_pressure;Samples;Min_cycle;Max_cycle;Signal;HPM_P1;HPM_P2
2023/08/25 00:00:38;;;;;;;;;14.00;11.50;;;;;23.57;100.00;98628.88;6269637;27;96593;-64
2023/08/25 00:03:41;;;;;;;;;14.40;12.40;;;;;23.61;100.00;98635.38;6269255;27;96954;-65
2023/08/25 00:06:45;;;;;;;;;23.60;19.60;;;;;23.62;100.00;98623.25;6269469;27;98558;-65
2023/08/25 00:09:48;;;;;;;;;17.00;16.50;;;;;23.63;100.00;98619.38;6289194;27;96360;-65
2023/08/25 00:12:51;;;;;;;;;15.00;14.00;;;;;23.60;100.00;98612.56;6277672;27;96375;-65
2023/08/25 00:15:56;;;;;;;;;15.00;14.00;;;;;23.56;100.00;98614.31;6289257;27;96884;-64
2023/08/25 00:18:59;;;;;;;;;18.80;17.40;;;;;23.54;100.00;98613.81;6250551;27;97371;-64
2023/08/25 00:22:02;;;;;;;;;17.00;17.00;;;;;23.49;100.00;98616.69;6252301;27;96721;-64
2023/08/25 00:25:07;;;;;;;;;14.00;14.00;;;;;23.42;100.00;98610.78;6288959;27;96506;-64
2023/08/25 00:28:10;;;;;;;;;15.00;13.60;;;;;23.39;100.00;98592.16;6265603;27;97892;-64
2023/08/25 00:31:17;;;;;;;;;13.40;13.00;;;;;23.36;100.00;98586.47;6287657;27;96451;-65
2023/08/25 00:34:20;;;;;;;;;13.00;11.00;;;;;23.31;100.00;98585.44;6288789;27;97551;-65
2023/08/25 00:37:24;;;;;;;;;12.25;12.00;;;;;23.31;100.00;98592.91;6269825;27;96745;-64
2023/08/25 00:40:27;;;;;;;;;12.00;11.00;;;;;23.29;100.00;98592.41;6270657;27;96769;-65
2023/08/25 00:43:33;;;;;;;;;11.00;9.00;;;;;23.26;100.00;98591.06;6269451;27;96402;-65
2023/08/25 00:46:38;;;;;;;;;13.00;12.00;;;;;23.21;100.00;98591.19;6268134;27;96511;-64
2023/08/25 00:49:42;;;;;;;;;13.60;11.60;;;;;23.16;100.00;98591.34;6268902;27;96863;-64
2023/08/25 00:52:46;;;;;;;;;12.00;12.00;;;;;23.16;100.00;98579.53;6288133;27;96369;-64
2023/08/25 00:55:51;;;;;;;;;11.00;11.00;;;;;23.09;100.00;98587.38;6269548;27;96417;-65
2023/08/25 00:58:55;;;;;;;;;13.00;11.80;;;;;22.97;100.00;98587.13;6287627;27;96617;-64
2023/08/25 01:02:00;;;;;;;;;12.00;11.00;;;;;22.92;100.00;98592.72;6268759;27;96760;-64
2023/08/25 01:05:04;;;;;;;;;13.50;13.50;;;;;22.86;100.00;98584.59;6275641;27;96598;-64
2023/08/25 01:08:09;;;;;;;;;12.00;12.00;;;;;22.72;100.00;98586.56;6270686;27;96397;-64
2023/08/25 01:11:28;;;;;;;;;17.00;14.60;;;;;22.57;100.00;98586.84;6269652;27;97028;-65
2023/08/25 01:14:42;;;;;;;;;15.40;14.00;;;;;22.51;100.00;98577.09;6266853;27;98603;-65
2023/08/25 01:17:57;;;;;;;;;14.75;13.00;;;;;22.56;100.00;98570.66;6264491;27;96890;-65
2023/08/25 01:21:04;;;;;;;;;13.00;12.00;;;;;22.54;100.00;98570.16;6265664;27;97323;-64
2023/08/25 01:24:16;;;;;;;;;11.40;11.20;;;;;22.48;100.00;98569.44;6283243;27;96736;-64
2023/08/25 01:27:22;;;;;;;;;14.00;13.00;;;;;22.39;100.00;98563.88;6268498;27;96622;-64
2023/08/25 01:30:27;;;;;;;;;12.25;12.00;;;;;22.36;100.00;98553.50;6268457;27;96935;-65
2023/08/25 01:33:31;;;;;;;;;13.00;11.80;;;;;22.36;100.00;98547.19;6252252;27;96710;-65
2023/08/25 01:36:41;;;;;;;;;14.00;13.50;;;;;22.31;100.00;98539.06;6268871;27;96996;-65
2023/08/25 01:39:46;;;;;;;;;15.00;13.25;;;;;22.38;100.00;98555.94;6250990;27;98416;-64
2023/08/25 01:42:55;;;;;;;;;13.60;12.20;;;;;22.35;100.00;98554.63;6270083;27;96396;-65
2023/08/25 01:46:00;;;;;;;;;16.67;15.00;;;;;22.31;100.00;98553.59;6268703;27;96578;-65
2023/08/25 01:49:04;;;;;;;;;14.50;13.00;;;;;22.25;100.00;98549.34;6286886;27;97569;-65
2023/08/25 01:52:12;;;;;;;;;13.60;13.00;;;;;22.30;100.00;98553.91;6267686;27;96475;-64
2023/08/25 01:55:16;;;;;;;;;17.00;15.00;;;;;22.32;100.00;98548.94;6268820;27;96406;-64
2023/08/25 01:58:21;;;;;;;;;15.00;15.00;;;;;22.11;100.00;98510.09;6268546;27;97515;-65
2023/08/25 02:01:25;;;;;;;;;14.80;14.40;;;;;22.34;100.00;98536.50;6242137;27;96907;-65
2023/08/25 02:04:29;;;;;;;;;13.50;12.50;;;;;22.34;100.00;98533.75;6268378;27;96447;-64
2023/08/25 02:07:32;;;;;;;;;14.25;14.25;;;;;22.29;100.00;98533.88;6251254;27;96865;-64
2023/08/25 02:10:35;;;;;;;;;15.25;14.00;;;;;22.36;100.00;98537.03;6266653;27;96812;-64
2023/08/25 02:13:41;;;;;;;;;14.00;14.00;;;;;22.50;100.00;98548.00;6250974;27;96581;-64
2023/08/25 02:16:44;;;;;;;;;16.00;14.00;;;;;22.49;100.00;98549.09;6286750;27;96298;-65
2023/08/25 02:19:47;;;;;;;;;15.00;14.60;;;;;22.50;100.00;98542.50;6267281;27;97512;-65
2023/08/25 02:22:50;;;;;;;;;13.80;12.00;;;;;22.49;100.00;98538.13;6286355;27;96288;-65
2023/08/25 02:25:53;;;;;;;;;15.00;14.60;;;;;22.43;100.00;98525.63;6248946;27;97618;-65
2023/08/25 02:28:58;;;;;;;;;19.50;18.00;;;;;22.35;100.00;98516.16;6268582;27;96642;-64
2023/08/25 02:32:03;;;;;;;;;15.60;15.00;;;;;22.39;100.00;98517.16;6266561;27;96154;-64
2023/08/25 02:35:07;;;;;;;;;14.00;13.00;;;;;22.36;100.00;98522.47;6285530;27;96538;-66
2023/08/25 02:38:11;;;;;;;;;14.20;13.20;;;;;22.31;100.00;98509.66;6268845;27;96420;-64
2023/08/25 02:41:14;;;;;;;;;15.00;14.60;;;;;22.29;100.00;98497.34;6286359;27;96952;-64
2023/08/25 02:44:20;;;;;;;;;19.20;17.80;;;;;22.26;100.00;98493.28;6268739;27;96346;-65
2023/08/25 02:47:23;;;;;;;;;17.00;16.60;;;;;22.21;100.00;98481.59;6250416;27;97208;-65
2023/08/25 02:50:26;;;;;;;;;15.40;15.00;;;;;22.19;100.00;98470.09;6264744;27;97120;-64
2023/08/25 02:53:29;;;;;;;;;16.20;15.00;;;;;22.19;100.00;98476.41;6268020;27;96478;-64
2023/08/25 02:56:32;;;;;;;;;16.00;14.75;;;;;22.28;100.00;98490.25;6264699;27;96847;-65
2023/08/25 02:59:37;;;;;;;;;17.60;16.60;;;;;22.36;100.00;98493.06;6267770;27;96317;-64
2023/08/25 03:02:41;;;;;;;;;21.80;20.80;;;;;22.39;100.00;98495.19;6240241;27;98959;-65
2023/08/25 03:05:44;;;;;;;;;18.40;18.40;;;;;22.38;100.00;98476.31;6264465;27;96854;-65
2023/08/25 03:08:48;;;;;;;;;18.00;17.00;;;;;22.40;100.00;98482.28;6241762;27;98780;-65
2023/08/25 03:11:51;;;;;;;;;24.40;20.00;;;;;22.38;100.00;98490.03;6249652;27;98500;-64
2023/08/25 03:14:56;;;;;;;;;18.00;17.00;;;;;22.34;100.00;98489.81;6267547;27;96360;-65
2023/08/25 03:18:01;;;;;;;;;18.00;17.00;;;;;22.26;100.00;98485.06;6248567;27;96387;-65
2023/08/25 03:21:05;;;;;;;;;20.20;18.60;;;;;22.24;100.00;98492.78;6247812;27;98694;-65
2023/08/25 03:24:09;;;;;;;;;20.60;17.00;;;;;22.23;100.00;98495.84;6240102;27;100289;-64
2023/08/25 03:27:13;;;;;;;;;18.50;17.25;;;;;22.16;100.00;98493.50;6263638;27;96665;-64
2023/08/25 03:30:17;;;;;;;;;18.00;17.60;;;;;22.14;100.00;98487.50;6286073;27;97196;-65
2023/08/25 03:33:21;;;;;;;;;19.60;18.20;;;;;22.13;100.00;98487.81;6271228;27;97017;-64
2023/08/25 03:36:24;;;;;;;;;21.33;18.67;;;;;22.09;100.00;98490.34;6269492;27;96787;-64
2023/08/25 03:39:28;;;;;;;;;18.60;17.60;;;;;22.04;100.00;98499.50;6271128;27;96838;-65
2023/08/25 03:42:31;;;;;;;;;20.75;19.00;;;;;22.05;100.00;98503.06;6287197;27;96759;-64
2023/08/25 03:45:37;;;;;;;;;22.00;20.00;;;;;22.02;100.00;98509.19;6268565;27;97928;-65
2023/08/25 03:48:41;;;;;;;;;22.00;22.00;;;;;22.00;100.00;98511.41;6270217;27;96663;-65
2023/08/25 03:51:44;;;;;;;;;20.00;20.00;;;;;21.84;100.00;98488.94;6249908;27;97093;-65
2023/08/25 03:54:48;;;;;;;;;19.00;19.00;;;;;21.96;100.00;98502.16;6254446;27;96690;-65
2023/08/25 03:57:51;;;;;;;;;21.00;18.33;;;;;21.99;100.00;98507.06;6270068;27;97804;-64
2023/08/25 04:00:57;;;;;;;;;23.00;21.00;;;;;22.03;100.00;98502.56;6270520;27;96859;-64
2023/08/25 04:04:01;;;;;;;;;23.00;22.00;;;;;22.09;100.00;98500.53;6286515;27;96687;-64
2023/08/25 04:07:04;;;;;;;;;22.80;19.80;;;;;22.15;100.00;98511.09;6271077;27;96314;-64
2023/08/25 04:10:08;;;;;;;;;21.00;20.00;;;;;22.20;100.00;98496.44;6254350;27;96856;-65
2023/08/25 04:13:12;;;;;;;;;22.50;21.50;;;;;22.24;100.00;98494.72;6270889;27;96392;-64
2023/08/25 04:16:16;;;;;;;;;19.60;19.20;;;;;22.28;100.00;98513.03;6271123;27;96371;-64
2023/08/25 04:19:21;;;;;;;;;19.00;19.00;;;;;22.31;100.00;98520.66;6271118;27;96664;-65
2023/08/25 04:22:27;;;;;;;;;19.25;17.00;;;;;22.32;100.00;98515.97;6269650;27;96317;-65
2023/08/25 04:25:32;;;;;;;;;19.00;17.75;;;;;22.33;100.00;98520.34;6252100;27;98532;-64
2023/08/25 04:28:36;;;;;;;;;18.40;17.00;;;;;22.38;100.00;98512.00;6270366;27;96584;-65
2023/08/25 04:31:41;;;;;;;;;17.80;16.20;;;;;22.46;100.00;98505.78;6288965;27;96400;-64
2023/08/25 04:34:49;;;;;;;;;20.40;18.00;;;;;22.53;100.00;98478.69;6270741;27;96309;-65
2023/08/25 04:37:52;;;;;;;;;18.00;16.60;;;;;22.61;100.00;98477.97;6243518;27;96964;-65
2023/08/25 04:40:58;;;;;;;;;18.00;16.00;;;;;22.69;100.00;98485.47;6260682;27;97376;-64
2023/08/25 04:44:01;;;;;;;;;18.00;17.00;;;;;22.82;100.00;98481.88;6258956;27;96859;-64
2023/08/25 04:47:07;;;;;;;;;18.00;17.00;;;;;22.96;100.00;98479.09;6265882;27;97456;-65
2023/08/25 04:50:11;;;;;;;;;19.60;18.00;;;;;23.10;100.00;98487.28;6259236;27;96344;-65
2023/08/25 04:53:15;;;;;;;;;18.25;17.00;;;;;23.21;100.00;98489.44;6267721;27;97226;-65
2023/08/25 04:56:18;;;;;;;;;20.00;19.00;;;;;23.37;100.00;98487.09;6253077;27;96693;-65
2023/08/25 04:59:21;;;;;;;;;18.40;17.00;;;;;23.53;100.00;98476.56;6270555;27;96623;-65
2023/08/25 05:02:26;;;;;;;;;20.00;18.00;;;;;23.67;100.00;98475.31;6250524;27;98641;-64
2023/08/25 05:05:30;;;;;;;;;19.00;18.00;;;;;23.91;100.00;98476.88;6253634;27;96664;-65
2023/08/25 05:08:34;;;;;;;;;24.40;22.00;;;;;24.00;100.00;98478.53;6257046;27;96997;-64
2023/08/25 05:11:39;;;;;;;;;23.00;22.60;;;;;24.12;100.00;98478.72;6265695;27;96367;-64
2023/08/25 05:14:43;;;;;;;;;25.60;25.00;;;;;24.30;100.00;98470.53;6255763;27;96287;-65
2023/08/25 05:17:48;;;;;;;;;26.00;24.00;;;;;24.50;100.00;98461.63;6256964;27;96692;-65
2023/08/25 05:20:51;;;;;;;;;22.75;22.00;;;;;24.73;100.00;98468.63;6231860;27;96368;-65
2023/08/25 05:24:16;;;;;;;;;26.80;24.00;;;;;24.94;100.00;98466.88;6259064;27;96973;-64
2023/08/25 05:27:20;;;;;;;;;25.40;24.00;;;;;25.15;100.00;98460.69;6256654;27;96370;-64
2023/08/25 05:30:23;;;;;;;;;22.60;21.60;;;;;25.32;100.00;98455.09;6250247;27;96786;-65
2023/08/25 05:33:30;;;;;;;;;24.00;22.00;;;;;25.52;100.00;98446.13;6269874;27;96458;-64
2023/08/25 05:37:02;;;;;;;;;19.60;19.00;;;;;25.76;100.00;98446.38;6221514;27;96911;-65
2023/08/25 05:40:07;;;;;;;;;21.00;19.75;;;;;25.91;100.00;98438.66;6219388;28;96527;-65
2023/08/25 05:43:12;;;;;;;;;24.00;22.40;;;;;26.17;100.00;98440.16;6236755;27;98217;-64
2023/08/25 05:46:17;;;;;;;;;21.00;20.00;;;;;26.40;100.00;98442.63;6253656;27;96498;-65
2023/08/25 05:49:22;;;;;;;;;16.00;15.00;;;;;26.61;100.00;98435.97;6249462;27;96892;-65
2023/08/25 05:52:25;;;;;;;;;21.00;19.20;;;;;26.86;100.00;98416.72;6249314;27;96470;-65
2023/08/25 05:55:30;;;;;;;;;17.60;15.60;;;;;27.02;100.00;98426.84;6224961;27;96673;-65
2023/08/25 05:58:33;;;;;;;;;19.00;17.40;;;;;27.18;100.00;98438.06;6256914;27;96719;-65
2023/08/25 06:01:36;;;;;;;;;24.00;20.00;;;;;27.23;100.00;98429.56;6261399;27;96567;-65
2023/08/25 06:04:41;;;;;;;;;21.00;20.40;;;;;27.32;100.00;98430.25;6285782;27;97619;-65
2023/08/25 06:07:44;;;;;;;;;25.00;22.00;;;;;27.34;100.00;98422.44;6265365;27;97170;-65
2023/08/25 06:10:47;;;;;;;;;22.50;21.00;;;;;27.49;100.00;98413.50;6257586;27;96976;-65
2023/08/25 06:13:51;;;;;;;;;22.00;21.40;;;;;27.57;100.00;98414.53;6247390;27;97566;-65
2023/08/25 06:16:59;;;;;;;;;22.40;20.80;;;;;27.54;100.00;98407.75;6260566;27;96597;-65
2023/08/25 06:20:06;;;;;;;;;22.60;21.00;;;;;27.44;100.00;98399.03;6256986;27;96724;-65
2023/08/25 06:23:11;;;;;;;;;24.00;21.00;;;;;27.26;100.00;98400.41;6247240;27;98921;-65
2023/08/25 06:26:14;;;;;;;;;22.20;19.60;;;;;27.24;100.00;98392.44;6281143;27;96541;-64
2023/08/25 06:29:18;;;;;;;;;21.25;20.00;;;;;27.20;100.00;98397.03;6284691;27;97597;-65
2023/08/25 06:32:23;;;;;;;;;17.00;14.00;;;;;27.20;100.00;98394.28;6267917;27;97440;-65
2023/08/25 06:35:29;;;;;;;;;17.80;16.00;;;;;27.27;100.00;98402.03;6277423;27;97252;-65
2023/08/25 06:38:32;;;;;;;;;18.00;16.75;;;;;27.33;100.00;98408.94;6284032;27;96179;-65
2023/08/25 06:41:52;;;;;;;;;18.00;16.80;;;;;27.37;100.00;98402.38;6279052;27;97345;-65
2023/08/25 06:44:56;;;;;;;;;16.00;16.00;;;;;27.46;100.00;98394.78;6273873;27;97092;-65
2023/08/25 06:47:59;;;;;;;;;18.40;17.00;;;;;27.43;100.00;98391.88;6275842;27;96717;-65
2023/08/25 06:51:04;;;;;;;;;10.60;10.60;;;;;27.49;100.00;98383.03;6284380;27;96344;-65
2023/08/25 06:54:07;;;;;;;;;15.40;14.00;;;;;27.61;100.00;98381.44;6279778;27;96646;-65
2023/08/25 06:57:11;;;;;;;;;16.25;16.00;;;;;27.80;100.00;98384.44;6285966;27;96385;-65
2023/08/25 07:00:15;;;;;;;;;18.60;15.20;;;;;28.00;100.00;98384.28;6267501;27;99214;-65
2023/08/25 07:03:18;;;;;;;;;18.60;16.00;;;;;28.27;100.00;98370.88;6285841;27;99159;-65
2023/08/25 07:06:23;;;;;;;;;15.25;14.50;;;;;28.51;100.00;98375.53;6271672;27;96363;-65
2023/08/25 07:09:26;;;;;;;;;16.00;15.00;;;;;28.68;100.00;98351.13;6272422;27;96948;-65
2023/08/25 07:12:29;;;;;;;;;14.60;13.40;;;;;28.90;100.00;98349.75;6287786;27;96321;-65
2023/08/25 07:15:34;;;;;;;;;16.50;15.75;;;;;29.13;100.00;98356.31;6288681;27;96895;-65
2023/08/25 07:18:37;;;;;;;;;13.00;12.00;;;;;29.46;100.00;98363.53;6263526;27;97529;-65
2023/08/25 07:21:42;;;;;;;;;12.60;12.00;;;;;29.73;100.00;98354.28;6286853;27;96749;-65
2023/08/25 07:24:46;;;;;;;;;14.00;13.40;;;;;30.08;100.00;98360.69;6271336;27;96588;-65
2023/08/25 07:27:53;;;;;;;;;14.00;13.00;;;;;30.55;100.00;98355.00;6263286;27;97386;-64
2023/08/25 07:30:59;;;;;;;;;15.00;13.00;;;;;30.92;100.00;98352.56;6292059;27;96942;-65
2023/08/25 07:34:03;;;;;;;;;14.80;13.00;;;;;31.20;100.00;98363.44;6273708;27;96336;-65
2023/08/25 07:37:07;;;;;;;;;12.60;12.00;;;;;31.30;100.00;98362.81;6294595;27;96353;-66
2023/08/25 07:40:11;;;;;;;;;11.80;11.80;;;;;31.30;100.00;98362.81;6295298;27;96389;-64
2023/08/25 07:43:14;;;;;;;;;11.00;10.00;;;;;31.33;100.00;98366.84;6296131;27;97641;-65
2023/08/25 07:46:17;;;;;;;;;14.00;12.00;;;;;31.28;100.00;98369.94;6273542;27;96830;-65
2023/08/25 07:49:21;;;;;;;;;11.00;10.00;;;;;31.19;100.00;98364.59;6292568;27;96355;-64
2023/08/25 07:52:25;;;;;;;;;12.00;11.00;;;;;31.02;100.00;98361.50;6295361;27;97153;-64
2023/08/25 07:55:28;;;;;;;;;13.40;12.00;;;;;30.96;100.00;98372.09;6274867;27;98054;-64
2023/08/25 07:58:32;;;;;;;;;13.00;12.00;;;;;30.93;100.00;98370.88;6294762;27;96297;-64
2023/08/25 08:01:35;;;;;;;;;13.00;11.60;;;;;30.56;100.00;98319.63;6281935;27;97341;-65
2023/08/25 08:04:39;;;;;;;;;11.00;9.00;;;;;30.86;100.00;98384.63;6276162;27;96577;-64
2023/08/25 08:07:44;;;;;;;;;11.40;10.00;;;;;30.71;100.00;98376.38;6259732;27;96980;-64
2023/08/25 08:10:48;;;;;;;;;13.40;13.00;;;;;30.58;100.00;98386.03;6296155;27;96379;-64
2023/08/25 08:13:51;;;;;;;;;14.00;12.00;;;;;30.34;100.00;98387.09;6277003;27;96564;-64
2023/08/25 08:16:54;;;;;;;;;9.75;9.75;;;;;30.19;100.00;98388.75;6270471;27;96688;-64
2023/08/25 08:19:57;;;;;;;;;9.80;9.80;;;;;30.14;100.00;98397.38;6289797;27;96673;-64
2023/08/25 08:23:02;;;;;;;;;8.50;8.50;;;;;30.15;100.00;98400.97;6296060;27;96417;-65
2023/08/25 08:26:05;;;;;;;;;10.40;9.80;;;;;30.25;100.00;98409.53;6283179;27;96662;-64
2023/08/25 08:29:09;;;;;;;;;14.20;13.80;;;;;30.34;100.00;98410.16;6277620;27;96844;-65
2023/08/25 08:32:13;;;;;;;;;11.40;10.40;;;;;30.59;100.00;98402.38;6293215;27;96548;-65
2023/08/25 08:35:17;;;;;;;;;14.20;13.80;;;;;30.78;100.00;98387.66;6278633;27;97386;-64
2023/08/25 08:38:22;;;;;;;;;12.00;11.60;;;;;30.97;100.00;98387.63;6297762;27;96363;-64
2023/08/25 08:41:26;;;;;;;;;16.50;14.50;;;;;31.03;100.00;98386.19;6298374;27;96443;-65
2023/08/25 08:44:31;;;;;;;;;14.00;13.00;;;;;30.89;100.00;98386.69;6278491;27;96732;-65
2023/08/25 08:47:35;;;;;;;;;15.60;14.00;;;;;30.82;100.00;98392.13;6263181;27;96308;-64
2023/08/25 08:50:38;;;;;;;;;13.00;13.00;;;;;30.85;100.00;98391.38;6265199;27;98209;-65
2023/08/25 08:53:43;;;;;;;;;15.00;14.00;;;;;30.90;100.00;98390.25;6278225;27;97420;-64
2023/08/25 08:56:46;;;;;;;;;13.25;12.75;;;;;30.90;100.00;98393.84;6268562;27;97174;-64
2023/08/25 08:59:51;;;;;;;;;11.00;11.00;;;;;30.96;100.00;98389.63;6276860;27;96443;-64
2023/08/25 09:02:58;;;;;;;;;11.00;11.00;;;;;31.13;100.00;98390.34;6296634;27;96345;-65
2023/08/25 09:06:04;;;;;;;;;13.00;12.00;;;;;31.58;100.00;98387.59;6293135;27;96777;-66
2023/08/25 09:09:09;;;;;;;;;11.00;10.00;;;;;32.28;100.00;98387.13;6282265;27;98423;-65
2023/08/25 09:12:13;;;;;;;;;11.60;11.00;;;;;32.85;100.00;98373.91;6291635;27;96736;-65
2023/08/25 09:15:25;;;;;;;;;11.00;10.00;;;;;33.34;100.00;98385.66;6297504;27;97113;-66
2023/08/25 09:18:38;;;;;;;;;11.20;10.60;;;;;33.83;100.00;98387.31;6261986;27;97538;-65
2023/08/25 09:21:45;;;;;;;;;12.00;11.00;;;;;34.38;100.00;98392.91;6286801;27;96384;-65
2023/08/25 09:24:50;;;;;;;;;12.60;12.00;;;;;34.85;100.00;98381.53;6271844;27;96530;-66
2023/08/25 09:27:57;;;;;;;;;13.00;12.00;;;;;35.51;100.00;98388.53;6289223;27;96350;-65
2023/08/25 09:31:00;;;;;;;;;12.00;12.00;;;;;35.93;100.00;98389.75;6270587;27;96665;-65
2023/08/25 09:34:05;;;;;;;;;12.50;12.00;;;;;36.50;100.00;98393.31;6294861;27;96351;-66
2023/08/25 09:37:08;;;;;;;;;14.00;13.00;;;;;36.92;100.00;98394.34;6248817;27;96878;-65
2023/08/25 09:40:15;;;;;;;;;13.40;12.40;;;;;37.19;100.00;98387.03;6261679;27;98798;-65
2023/08/25 09:43:28;;;;;;;;;10.00;10.00;;;;;37.40;100.00;98386.88;6288557;27;96867;-66
2023/08/25 09:46:33;;;;;;;;;14.40;13.40;;;;;37.39;100.00;98388.06;6287910;27;97431;-66
2023/08/25 09:49:40;;;;;;;;;9.00;8.20;;;;;37.09;100.00;98388.69;6290724;27;96313;-66
2023/08/25 09:52:45;;;;;;;;;9.60;8.60;;;;;37.22;100.00;98377.75;6274935;27;97184;-65
2023/08/25 09:55:56;;;;;;;;;12.40;11.60;;;;;37.22;100.00;98366.50;6269028;27;96886;-67
2023/08/25 09:58:59;;;;;;;;;12.00;11.00;;;;;37.04;100.00;98377.03;6261796;27;96909;-66
2023/08/25 10:02:03;;;;;;;;;11.25;11.00;;;;;37.10;100.00;98372.59;6291808;27;96974;-66
2023/08/25 10:05:09;;;;;;;;;10.00;10.00;;;;;37.07;100.00;98370.59;6283136;27;96370;-66
2023/08/25 10:08:14;;;;;;;;;12.00;11.00;;;;;37.06;100.00;98372.59;6245781;27;96898;-66
2023/08/25 10:11:21;;;;;;;;;11.00;10.00;;;;;37.52;100.00;98375.13;6292791;27;96305;-66
2023/08/25 10:14:26;;;;;;;;;12.00;11.00;;;;;37.71;100.00;98362.56;6281367;27;98483;-66
2023/08/25 10:17:31;;;;;;;;;13.00;12.00;;;;;37.86;100.00;98372.47;6270178;27;96875;-66
2023/08/25 10:20:36;;;;;;;;;11.00;10.25;;;;;38.28;100.00;98364.81;6281777;27;96693;-66
2023/08/25 10:23:41;;;;;;;;;11.00;11.00;;;;;38.28;100.00;98357.19;6257074;27;97737;-66
2023/08/25 10:26:47;;;;;;;;;12.75;11.00;;;;;38.52;97.20;98360.97;6247110;27;96730;-67
2023/08/25 10:29:50;;;;;;;;;11.20;10.60;;;;;38.25;100.00;98351.59;6292232;27;96463;-66
2023/08/25 10:32:56;;;;;;;;;13.00;13.00;;;;;38.26;100.00;98348.38;6264169;27;98705;-66
2023/08/25 10:36:04;;;;;;;;;12.50;11.50;;;;;38.43;99.54;98347.34;6263533;27;98771;-66
2023/08/25 10:39:09;;;;;;;;;12.00;11.00;;;;;38.25;100.00;98340.34;6276451;27;97269;-66
2023/08/25 10:42:18;;;;;;;;;10.60;10.40;;;;;37.90;100.00;98325.38;6277359;27;96366;-66
2023/08/25 10:45:23;;;;;;;;;11.80;11.00;;;;;37.91;100.00;98340.25;6270943;27;96407;-66
2023/08/25 10:48:27;;;;;;;;;12.40;11.40;;;;;37.74;100.00;98330.75;6279718;27;97104;-66
2023/08/25 10:51:39;;;;;;;;;10.40;10.40;;;;;37.79;100.00;98330.31;6276370;27;96737;-66
2023/08/25 10:54:45;;;;;;;;;9.00;9.00;;;;;37.72;100.00;98331.19;6287691;27;96507;-65
2023/08/25 10:57:52;;;;;;;;;13.00;12.00;;;;;37.92;100.00;98333.44;6287534;27;96439;-66
2023/08/25 11:01:02;;;;;;;;;12.00;12.00;;;;;37.88;100.00;98329.81;6282589;27;96585;-66
2023/08/25 11:04:07;;;;;;;;;11.00;11.00;;;;;37.66;99.65;98324.41;6268313;27;96867;-66
2023/08/25 11:07:42;;;;;;;;;10.80;10.20;;;;;37.92;100.00;98333.44;6270548;27;96645;-66
2023/08/25 11:10:45;;;;;;;;;13.00;13.00;;;;;38.20;100.00;98330.34;6278222;27;96584;-66
2023/08/25 11:13:53;;;;;;;;;11.00;11.00;;;;;38.17;99.31;98340.41;6287619;27;96283;-66
2023/08/25 11:16:57;;;;;;;;;10.00;10.00;;;;;38.14;99.08;98341.25;6250283;27;98605;-66
2023/08/25 11:20:00;;;;;;;;;13.00;12.00;;;;;38.35;98.84;98339.41;6284407;27;96552;-67
2023/08/25 11:23:04;;;;;;;;;11.60;10.00;;;;;38.07;100.00;98299.09;6265510;27;96686;-66
2023/08/25 11:26:22;;;;;;;;;11.00;11.00;;;;;38.43;99.32;98336.09;6271637;27;96643;-66
2023/08/25 11:29:27;;;;;;;;;12.80;12.20;;;;;38.28;97.65;98337.47;6262015;27;96220;-66
2023/08/25 11:32:30;;;;;;;;;14.00;13.60;;;;;38.05;98.20;98326.88;6255990;27;97029;-67
2023/08/25 11:35:33;;;;;;;;;12.25;11.75;;;;;37.93;99.30;98335.00;6269669;27;97615;-67
2023/08/25 11:38:37;;;;;;;;;13.25;12.00;;;;;38.03;100.00;98323.66;6244562;27;98455;-66
2023/08/25 11:41:40;;;;;;;;;11.00;11.00;;;;;38.48;100.00;98330.03;6270809;27;96840;-66
2023/08/25 11:44:45;;;;;;;;;13.00;12.50;;;;;38.79;97.31;98322.38;6274915;27;98452;-66
2023/08/25 11:47:48;;;;;;;;;13.00;12.00;;;;;38.81;96.76;98333.22;6295845;27;96811;-66
2023/08/25 11:50:52;;;;;;;;;13.00;11.60;;;;;38.78;99.72;98331.25;6289115;27;96404;-67
2023/08/25 11:53:55;;;;;;;;;12.00;10.00;;;;;38.81;95.72;98328.38;6279212;27;97299;-66
2023/08/25 11:56:59;;;;;;;;;11.50;10.50;;;;;39.00;97.18;98315.66;6280323;27;97034;-66
2023/08/25 12:00:06;;;;;;;;;12.00;11.00;;;;;39.09;97.37;98324.41;6281435;27;96772;-66
2023/08/25 12:03:14;;;;;;;;;13.00;13.00;;;;;38.95;96.50;98322.56;6259733;27;98663;-67
2023/08/25 12:06:17;;;;;;;;;15.60;15.00;;;;;39.15;97.25;98331.13;6273109;27;98550;-66
2023/08/25 12:09:22;;;;;;;;;14.00;13.00;;;;;39.19;96.99;98348.81;6290174;27;96506;-66
2023/08/25 12:12:26;;;;;;;;;13.00;12.40;;;;;38.85;97.77;98331.97;6261356;27;98642;-66
2023/08/25 12:15:41;;;;;;;;;12.20;12.00;;;;;38.81;97.61;98327.56;6276938;27;96363;-66
2023/08/25 12:18:51;;;;;;;;;14.25;12.75;;;;;38.30;99.52;98292.00;6272470;27;96358;-66
2023/08/25 12:21:55;;;;;;;;;13.00;13.00;;;;;38.64;100.00;98323.00;6277696;27;97975;-67
2023/08/25 12:24:58;;;;;;;;;15.20;14.20;;;;;38.56;98.20;98325.13;6277059;27;99059;-66
2023/08/25 12:28:01;;;;;;;;;14.40;13.00;;;;;38.44;100.00;98328.47;6277005;27;98905;-66
2023/08/25 12:31:06;;;;;;;;;14.60;13.00;;;;;38.66;100.00;98326.19;6266812;27;98512;-66
2023/08/25 12:34:09;;;;;;;;;14.00;13.75;;;;;38.72;98.22;98322.47;6276062;27;96224;-66
2023/08/25 12:37:13;;;;;;;;;14.00;13.00;;;;;38.98;100.00;98320.94;6296441;27;96471;-66
2023/08/25 12:40:20;;;;;;;;;13.40;12.40;;;;;38.99;98.39;98322.53;6295335;27;97721;-66
2023/08/25 12:43:23;;;;;;;;;14.40;14.00;;;;;39.16;100.00;98320.66;6276603;27;97102;-66
2023/08/25 12:46:28;;;;;;;;;15.00;13.00;;;;;39.36;98.20;98307.47;6296868;27;96330;-66
2023/08/25 12:49:32;;;;;;;;;14.60;13.00;;;;;39.29;95.41;98307.59;6262821;27;96788;-66
2023/08/25 12:52:36;;;;;;;;;12.00;12.00;;;;;39.32;97.60;98316.00;6254024;27;97193;-66
2023/08/25 12:55:39;;;;;;;;;13.25;12.50;;;;;39.50;96.73;98306.44;6294742;27;96707;-66
2023/08/25 12:58:42;;;;;;;;;15.00;14.00;;;;;39.46;93.85;98300.88;6278535;27;96359;-66
2023/08/25 13:01:47;;;;;;;;;14.00;12.60;;;;;39.47;94.86;98307.31;6296662;27;96915;-65
2023/08/25 13:04:51;;;;;;;;;15.00;14.00;;;;;39.13;96.10;98305.41;6276245;27;96727;-66
2023/08/25 13:07:55;;;;;;;;;13.40;12.60;;;;;39.00;98.00;98304.38;6276383;27;96635;-66
2023/08/25 13:10:59;;;;;;;;;14.00;13.00;;;;;38.92;99.07;98311.34;6262827;27;96645;-66
2023/08/25 13:14:02;;;;;;;;;16.00;14.00;;;;;38.67;98.04;98310.88;6275727;27;96632;-66
2023/08/25 13:17:07;;;;;;;;;15.00;14.40;;;;;38.62;100.00;98311.34;6267235;27;96367;-66
2023/08/25 13:20:11;;;;;;;;;13.25;13.00;;;;;38.88;100.00;98302.16;6287072;27;96598;-66
2023/08/25 13:23:14;;;;;;;;;15.00;14.40;;;;;39.05;97.87;98300.31;6294334;27;96392;-66
2023/08/25 13:26:36;;;;;;;;;14.20;13.80;;;;;39.04;96.11;98287.44;6296381;27;96649;-66
2023/08/25 13:29:39;;;;;;;;;14.80;12.20;;;;;38.73;96.96;98286.66;6296022;27;96282;-66
2023/08/25 13:32:44;;;;;;;;;12.40;12.00;;;;;38.59;98.61;98296.09;6289537;27;97010;-66
2023/08/25 13:35:48;;;;;;;;;14.20;12.20;;;;;38.27;99.60;98292.88;6294904;27;96330;-66
2023/08/25 13:38:51;;;;;;;;;14.60;13.00;;;;;38.01;99.51;98285.91;6275983;27;96635;-66
2023/08/25 13:41:55;;;;;;;;;13.00;12.00;;;;;38.01;100.00;98283.09;6275599;27;97176;-66
2023/08/25 13:44:59;;;;;;;;;16.75;14.00;;;;;37.92;100.00;98283.56;6293837;27;96185;-66
2023/08/25 13:48:04;;;;;;;;;14.00;13.00;;;;;38.12;100.00;98281.75;6288290;27;96295;-66
2023/08/25 13:51:08;;;;;;;;;12.00;12.00;;;;;38.11;100.00;98285.81;6273330;27;96433;-66
2023/08/25 13:54:11;;;;;;;;;12.40;11.60;;;;;38.39;100.00;98283.84;6295271;27;96351;-66
2023/08/25 13:57:15;;;;;;;;;16.00;15.75;;;;;38.38;98.81;98279.44;6262702;27;96793;-67
2023/08/25 14:00:19;;;;;;;;;16.00;16.00;;;;;38.38;99.49;98282.25;6277375;27;98400;-66
2023/08/25 14:03:25;;;;;;;;;15.00;13.00;;;;;38.49;98.56;98280.94;6277073;27;98412;-66